Time,TemperatureF,DewpointF,PressureIn,WindDirection,WindDirectionDegrees,WindSpeedMPH,WindSpeedGustMPH,Humidity,HourlyPrecipIn,Conditions,Clouds,dailyrainin,SoftwareType,DateUTC
2013-01-31 00:03:00,50.7,50.0,29.30,South,191,14.0,23.0,96,0.04,,,0.00,weatherlink.com 1.10,2013-01-31 05:03:00,
2013-01-31 00:18:00,50.8,50.0,29.28,SSW,193,13.0,27.0,96,0.04,,,0.00,weatherlink.com 1.10,2013-01-31 05:18:00,
2013-01-31 00:33:00,50.5,49.0,29.26,SSW,201,20.0,25.0,96,0.02,,,0.00,weatherlink.com 1.10,2013-01-31 05:33:00,
2013-01-31 00:49:00,50.5,49.0,29.24,SSW,203,19.0,26.0,96,0.00,,,0.00,weatherlink.com 1.10,2013-01-31 05:49:00,
2013-01-31 01:03:00,50.4,49.0,29.21,SSW,205,15.0,28.0,96,0.00,,,0.00,weatherlink.com 1.10,2013-01-31 06:03:00,
2013-01-31 01:18:00,50.3,49.0,29.20,SSW,203,10.0,33.0,96,0.00,,,0.00,weatherlink.com 1.10,2013-01-31 06:18:00,
2013-01-31 01:33:00,50.0,49.0,29.20,West,274,8.0,26.0,96,0.01,,,0.01,weatherlink.com 1.10,2013-01-31 06:33:00,
2013-01-31 01:48:00,51.6,51.0,29.21,SSW,204,8.0,14.0,97,0.37,,,0.37,weatherlink.com 1.10,2013-01-31 06:48:00,
2013-01-31 02:03:00,54.4,54.0,29.25,WNW,285,3.0,9.0,97,0.63,,,0.63,weatherlink.com 1.10,2013-01-31 07:03:00,
2013-01-31 02:18:00,60.0,59.0,29.25,NNW,330,14.0,31.0,96,0.65,,,0.65,weatherlink.com 1.10,2013-01-31 07:18:00,
2013-01-31 02:33:00,60.1,57.0,29.25,WNW,295,14.0,27.0,89,0.66,,,0.67,weatherlink.com 1.10,2013-01-31 07:33:00,
2013-01-31 02:48:00,59.3,56.0,29.27,West,267,6.0,17.0,88,0.35,,,0.72,weatherlink.com 1.10,2013-01-31 07:48:00,
2013-01-31 03:03:00,58.6,55.0,29.24,WSW,249,8.0,18.0,87,0.12,,,0.75,weatherlink.com 1.10,2013-01-31 08:03:00,
2013-01-31 03:18:00,58.5,54.0,29.23,WNW,283,3.0,15.0,86,0.10,,,0.75,weatherlink.com 1.10,2013-01-31 08:18:00,
2013-01-31 03:33:00,58.3,54.0,29.21,West,276,4.0,19.0,85,0.08,,,0.75,weatherlink.com 1.10,2013-01-31 08:33:00,
2013-01-31 03:49:00,58.6,52.0,29.22,WNW,287,9.0,21.0,79,0.03,,,0.75,weatherlink.com 1.10,2013-01-31 08:49:00,
2013-01-31 04:04:00,58.9,52.0,29.22,WNW,297,8.0,25.0,78,0.00,,,0.75,weatherlink.com 1.10,2013-01-31 09:04:00,
2013-01-31 04:18:00,59.2,51.0,29.23,West,278,11.0,24.0,75,0.00,,,0.75,weatherlink.com 1.10,2013-01-31 09:18:00,
2013-01-31 04:33:00,59.2,50.0,29.24,West,266,13.0,25.0,72,0.00,,,0.75,weatherlink.com 1.10,2013-01-31 09:33:00,
2013-01-31 04:48:00,58.8,50.0,29.25,WNW,294,5.0,22.0,72,0.00,,,0.75,weatherlink.com 1.10,2013-01-31 09:48:00,
2013-01-31 05:03:00,55.3,45.0,29.30,NW,305,10.0,41.0,68,0.00,,,0.75,weatherlink.com 1.10,2013-01-31 10:03:00,
2013-01-31 05:18:00,53.3,39.0,29.33,NW,308,28.0,33.0,59,0.00,,,0.75,weatherlink.com 1.10,2013-01-31 10:18:00,
2013-01-31 05:33:00,51.5,36.0,29.35,NW,305,25.0,38.0,56,0.00,,,0.75,weatherlink.com 1.10,2013-01-31 10:33:00,
2013-01-31 05:49:00,50.2,37.0,29.37,NNW,347,12.0,33.0,60,0.00,,,0.75,weatherlink.com 1.10,2013-01-31 10:49:00,
2013-01-31 06:04:00,49.7,35.0,29.40,WNW,301,16.0,33.0,57,0.00,,,0.75,weatherlink.com 1.10,2013-01-31 11:04:00,
2013-01-31 06:19:00,49.2,34.0,29.41,NW,315,17.0,25.0,57,0.00,,,0.75,weatherlink.com 1.10,2013-01-31 11:19:00,
2013-01-31 06:34:00,48.5,35.0,29.43,NNW,329,25.0,28.0,59,0.00,,,0.75,weatherlink.com 1.10,2013-01-31 11:34:00,
2013-01-31 06:49:00,48.1,35.0,29.44,NW,323,19.0,24.0,60,0.00,,,0.75,weatherlink.com 1.10,2013-01-31 11:49:00,
2013-01-31 07:04:00,47.5,34.0,29.46,NNW,337,16.0,22.0,61,0.00,,,0.75,weatherlink.com 1.10,2013-01-31 12:04:00,
2013-01-31 07:19:00,46.9,31.0,29.48,WNW,287,23.0,32.0,54,0.00,,,0.75,weatherlink.com 1.10,2013-01-31 12:19:00,
2013-01-31 07:34:00,46.4,29.0,29.50,WNW,300,27.0,32.0,52,0.00,,,0.75,weatherlink.com 1.10,2013-01-31 12:34:00,
2013-01-31 07:49:00,45.9,30.0,29.52,NW,316,21.0,29.0,55,0.00,,,0.75,weatherlink.com 1.10,2013-01-31 12:49:00,
2013-01-31 08:04:00,44.9,30.0,29.54,NW,316,13.0,27.0,56,0.00,,,0.75,weatherlink.com 1.10,2013-01-31 13:04:00,
2013-01-31 08:19:00,44.3,29.0,29.55,NW,307,26.0,32.0,55,0.00,,,0.75,weatherlink.com 1.10,2013-01-31 13:19:00,
2013-01-31 08:34:00,43.5,27.0,29.57,WNW,300,27.0,38.0,53,0.00,,,0.75,weatherlink.com 1.10,2013-01-31 13:34:00,
2013-01-31 08:49:00,43.2,27.0,29.57,NW,309,23.0,31.0,53,0.00,,,0.75,weatherlink.com 1.10,2013-01-31 13:49:00,
2013-01-31 09:05:00,43.3,27.0,29.59,NW,307,17.0,36.0,52,0.00,,,0.75,weatherlink.com 1.10,2013-01-31 14:05:00,
2013-01-31 09:20:00,43.7,26.0,29.60,NNW,337,16.0,23.0,51,0.00,,,0.75,weatherlink.com 1.10,2013-01-31 14:20:00,
2013-01-31 09:35:00,44.2,25.0,29.60,WNW,303,17.0,23.0,48,0.00,,,0.75,weatherlink.com 1.10,2013-01-31 14:35:00,
2013-01-31 09:49:00,44.2,24.0,29.62,NW,309,14.0,29.0,46,0.00,,,0.75,weatherlink.com 1.10,2013-01-31 14:49:00,
2013-01-31 10:04:00,44.2,25.0,29.62,NW,314,13.0,22.0,47,0.00,,,0.75,weatherlink.com 1.10,2013-01-31 15:04:00,
2013-01-31 10:20:00,44.0,25.0,29.64,WNW,286,12.0,26.0,47,0.00,,,0.75,weatherlink.com 1.10,2013-01-31 15:20:00,
2013-01-31 10:34:00,44.1,23.0,29.65,NW,304,16.0,33.0,44,0.00,,,0.75,weatherlink.com 1.10,2013-01-31 15:34:00,
2013-01-31 10:49:00,44.1,22.0,29.65,NW,305,14.0,33.0,42,0.00,,,0.75,weatherlink.com 1.10,2013-01-31 15:49:00,
2013-01-31 11:05:00,44.2,21.0,29.66,WNW,288,21.0,35.0,40,0.00,,,0.75,weatherlink.com 1.10,2013-01-31 16:05:00,
2013-01-31 11:20:00,43.7,21.0,29.65,WNW,294,16.0,31.0,41,0.00,,,0.75,weatherlink.com 1.10,2013-01-31 16:20:00,
2013-01-31 11:35:00,43.8,20.0,29.66,NW,307,21.0,34.0,39,0.00,,,0.75,weatherlink.com 1.10,2013-01-31 16:35:00,
2013-01-31 11:50:00,44.0,21.0,29.67,NW,322,18.0,32.0,40,0.00,,,0.75,weatherlink.com 1.10,2013-01-31 16:50:00,
2013-01-31 12:05:00,44.8,22.0,29.67,NW,305,10.0,29.0,40,0.00,,,0.75,weatherlink.com 1.10,2013-01-31 17:05:00,
2013-01-31 12:20:00,45.2,21.0,29.66,WNW,297,16.0,27.0,39,0.00,,,0.75,weatherlink.com 1.10,2013-01-31 17:20:00,
2013-01-31 12:35:00,45.6,22.0,29.66,West,281,9.0,32.0,39,0.00,,,0.75,weatherlink.com 1.10,2013-01-31 17:35:00,
2013-01-31 12:50:00,46.4,22.0,29.66,NW,308,16.0,23.0,39,0.00,,,0.75,weatherlink.com 1.10,2013-01-31 17:50:00,
2013-01-31 13:05:00,47.3,23.0,29.66,NW,308,20.0,23.0,39,0.00,,,0.75,weatherlink.com 1.10,2013-01-31 18:05:00,
2013-01-31 13:20:00,46.2,22.0,29.67,NW,322,13.0,28.0,39,0.00,,,0.75,weatherlink.com 1.10,2013-01-31 18:20:00,
2013-01-31 13:35:00,46.4,19.0,29.67,NW,305,15.0,25.0,34,0.00,,,0.75,weatherlink.com 1.10,2013-01-31 18:35:00,
2013-01-31 13:50:00,45.1,19.0,29.68,NW,305,16.0,26.0,36,0.00,,,0.75,weatherlink.com 1.10,2013-01-31 18:50:00,
2013-01-31 14:05:00,45.7,19.0,29.68,WNW,300,26.0,26.0,35,0.00,,,0.75,weatherlink.com 1.10,2013-01-31 19:05:00,
2013-01-31 14:21:00,44.7,19.0,29.69,WNW,296,16.0,28.0,36,0.00,,,0.75,weatherlink.com 1.10,2013-01-31 19:21:00,
2013-01-31 14:35:00,44.3,20.0,29.70,NW,318,16.0,26.0,38,0.00,,,0.75,weatherlink.com 1.10,2013-01-31 19:35:00,
2013-01-31 14:50:00,44.4,19.0,29.71,NNE,13,22.0,28.0,36,0.00,,,0.75,weatherlink.com 1.10,2013-01-31 19:50:00,
2013-01-31 15:05:00,44.7,20.0,29.73,WNW,303,6.0,23.0,37,0.00,,,0.75,weatherlink.com 1.10,2013-01-31 20:05:00,
2013-01-31 15:20:00,44.1,19.0,29.73,WNW,285,13.0,27.0,37,0.00,,,0.75,weatherlink.com 1.10,2013-01-31 20:20:00,
2013-01-31 15:36:00,42.8,19.0,29.75,NW,312,18.0,22.0,38,0.00,,,0.75,weatherlink.com 1.10,2013-01-31 20:36:00,
2013-01-31 15:50:00,42.9,20.0,29.75,WNW,303,13.0,26.0,40,0.00,,,0.75,weatherlink.com 1.10,2013-01-31 20:50:00,
2013-01-31 16:06:00,42.4,21.0,29.77,NW,326,17.0,17.0,43,0.00,,,0.75,weatherlink.com 1.10,2013-01-31 21:06:00,
2013-01-31 16:20:00,41.5,20.0,29.78,WNW,297,17.0,23.0,42,0.00,,,0.75,weatherlink.com 1.10,2013-01-31 21:20:00,
2013-01-31 16:36:00,41.7,18.0,29.80,WNW,294,21.0,32.0,38,0.00,,,0.75,weatherlink.com 1.10,2013-01-31 21:36:00,
2013-01-31 16:51:00,40.7,16.0,29.80,NW,307,15.0,31.0,37,0.00,,,0.75,weatherlink.com 1.10,2013-01-31 21:51:00,
2013-01-31 17:06:00,39.9,17.0,29.82,NW,304,14.0,25.0,40,0.00,,,0.75,weatherlink.com 1.10,2013-01-31 22:06:00,
2013-01-31 17:21:00,39.2,17.0,29.82,WNW,301,7.0,25.0,41,0.00,,,0.75,weatherlink.com 1.10,2013-01-31 22:21:00,
2013-01-31 17:36:00,38.8,17.0,29.83,WNW,294,18.0,20.0,42,0.00,,,0.75,weatherlink.com 1.10,2013-01-31 22:36:00,
2013-01-31 17:51:00,38.4,18.0,29.84,NW,319,11.0,19.0,44,0.00,,,0.75,weatherlink.com 1.10,2013-01-31 22:51:00,
2013-01-31 18:06:00,38.1,18.0,29.85,WNW,302,10.0,15.0,44,0.00,,,0.75,weatherlink.com 1.10,2013-01-31 23:06:00,
2013-01-31 18:21:00,37.9,18.0,29.86,WNW,284,3.0,12.0,44,0.00,,,0.75,weatherlink.com 1.10,2013-01-31 23:21:00,
2013-01-31 18:36:00,37.5,18.0,29.87,WNW,298,4.0,10.0,46,0.00,,,0.75,weatherlink.com 1.10,2013-01-31 23:36:00,
2013-01-31 18:51:00,37.4,19.0,29.88,NW,311,12.0,12.0,47,0.00,,,0.75,weatherlink.com 1.10,2013-01-31 23:51:00,
2013-01-31 19:06:00,37.3,19.0,29.89,NW,309,8.0,11.0,48,0.00,,,0.75,weatherlink.com 1.10,2013-02-01 00:06:00,
2013-01-31 19:21:00,37.3,19.0,29.90,NW,323,8.0,13.0,47,0.00,,,0.75,weatherlink.com 1.10,2013-02-01 00:21:00,
2013-01-31 19:36:00,36.9,17.0,29.91,NW,309,14.0,21.0,45,0.00,,,0.75,weatherlink.com 1.10,2013-02-01 00:36:00,
2013-01-31 19:52:00,36.2,16.0,29.92,NW,305,10.0,24.0,43,0.00,,,0.75,weatherlink.com 1.10,2013-02-01 00:52:00,
2013-01-31 20:06:00,35.7,15.0,29.93,NNW,330,10.0,21.0,43,0.00,,,0.75,weatherlink.com 1.10,2013-02-01 01:06:00,
2013-01-31 20:21:00,35.3,14.0,29.93,NW,305,15.0,26.0,41,0.00,,,0.75,weatherlink.com 1.10,2013-02-01 01:21:00,
2013-01-31 20:36:00,34.7,17.0,29.93,NW,308,11.0,15.0,48,0.00,,,0.75,weatherlink.com 1.10,2013-02-01 01:36:00,
2013-01-31 20:51:00,34.2,16.0,29.94,NNW,338,8.0,21.0,48,0.00,,,0.75,weatherlink.com 1.10,2013-02-01 01:51:00,
2013-01-31 21:06:00,33.8,15.0,29.94,NW,315,7.0,13.0,47,0.00,,,0.75,weatherlink.com 1.10,2013-02-01 02:06:00,
2013-01-31 21:22:00,33.3,15.0,29.94,NW,319,7.0,12.0,48,0.00,,,0.75,weatherlink.com 1.10,2013-02-01 02:22:00,
2013-01-31 21:37:00,32.9,15.0,29.94,NW,309,5.0,10.0,49,0.00,,,0.75,weatherlink.com 1.10,2013-02-01 02:37:00,
2013-01-31 21:52:00,32.5,15.0,29.94,NW,316,5.0,7.0,49,0.00,,,0.75,weatherlink.com 1.10,2013-02-01 02:52:00,
2013-01-31 22:07:00,32.0,15.0,29.95,WNW,297,3.0,4.0,49,0.00,,,0.75,weatherlink.com 1.10,2013-02-01 03:07:00,
2013-01-31 22:22:00,31.3,14.0,29.95,West,280,1.0,2.0,50,0.00,,,0.75,weatherlink.com 1.10,2013-02-01 03:22:00,
2013-01-31 22:39:00,30.8,14.0,29.95,WSW,253,1.0,2.0,51,0.00,,,0.75,weatherlink.com 1.10,2013-02-01 03:39:00,
2013-01-31 22:52:00,30.6,15.0,29.96,West,263,1.0,1.0,52,0.00,,,0.75,weatherlink.com 1.10,2013-02-01 03:52:00,
2013-01-31 23:07:00,30.3,14.0,29.96,SW,229,2.0,2.0,52,0.00,,,0.75,weatherlink.com 1.10,2013-02-01 04:07:00,
2013-01-31 23:22:00,30.4,15.0,29.96,SW,229,1.0,3.0,53,0.00,,,0.75,weatherlink.com 1.10,2013-02-01 04:22:00,
2013-01-31 23:37:00,30.2,16.0,29.96,WSW,245,0.0,2.0,57,0.00,,,0.75,weatherlink.com 1.10,2013-02-01 04:37:00,
2013-01-31 23:52:00,29.5,18.0,29.96,WSW,245,0.0,1.0,63,0.00,,,0.75,weatherlink.com 1.10,2013-02-01 04:52:00,